Big Bear Station Historical Data
Daily Summary for February 17, 2017 Units:  English    Metric   Both
« Previous Day
Next Day »
Daily Weekly Monthly Yearly Custom
  High: Low: Average:
Temperature: 38.1 °F 30.0 °F 34.6 °F
Dew Point: 31.6 °F 24.5 °F 29.4 °F
Humidity: 97 % 62 % 82 %
Wind Speed: 13.0 mph 0.0 mph 3.5 mph
Wind Gust: 25.3 mph - -
Wind:- - SSW
Pressure: 29.98 in 29.60 in -
Precipitation: 0.10 in    
Historical Graphs
 
 
Tabular Data for February 17, 2017
Time Temperature Dew Point Pressure Wind Wind Speed Wind Gust Humidity Rainfall Rate (Hourly)
00:05 37.0 °F 29.8 °F 29.97 in Calm   -999.0 mph 75 % 0 in
00:20 36.9 °F 29.4 °F 29.97 in North 2.2 mph -999.0 mph 74 % 0 in
00:36 37.0 °F 28.1 °F 29.97 in NW 4.2 mph -999.0 mph 70 % 0 in
00:51 36.9 °F 28.7 °F 29.98 in WSW 2.2 mph -999.0 mph 72 % 0 in
01:07 36.7 °F 29.2 °F 29.96 in South 1.7 mph -999.0 mph 74 % 0 in
01:22 36.0 °F 28.2 °F 29.95 in Calm   -999.0 mph 73 % 0 in
01:37 35.8 °F 27.3 °F 29.94 in NNW 1.1 mph -999.0 mph 71 % 0 in
01:53 35.8 °F 27.3 °F 29.95 in NNW 4.2 mph -999.0 mph 71 % 0 in
02:08 36.0 °F 27.2 °F 29.93 in WNW 2.7 mph -999.0 mph 70 % 0 in
02:23 35.8 °F 26.3 °F 29.93 in West 2.2 mph -999.0 mph 68 % 0 in
02:38 36.1 °F 25.5 °F 29.93 in South 3.7 mph -999.0 mph 65 % 0 in
02:54 36.9 °F 25.5 °F 29.93 in NNE 2.7 mph -999.0 mph 63 % 0 in
03:09 36.3 °F 24.9 °F 29.92 in NNE 1.7 mph -999.0 mph 63 % 0 in
03:24 36.0 °F 25.7 °F 29.91 in SSE 1.1 mph -999.0 mph 66 % 0 in
03:39 36.3 °F 26.0 °F 29.91 in SW 3.2 mph -999.0 mph 66 % 0 in
03:55 36.0 °F 26.1 °F 29.90 in West 2.7 mph -999.0 mph 67 % 0 in
04:10 36.3 °F 24.5 °F 29.90 in SSW 2.7 mph -999.0 mph 62 % 0 in
04:26 36.1 °F 25.8 °F 29.90 in WNW 5.3 mph -999.0 mph 66 % 0 in
04:41 35.1 °F 27.6 °F 29.89 in NNW 3.7 mph -999.0 mph 74 % 0 in
04:57 32.2 °F 29.0 °F 29.88 in SSE 4.2 mph -999.0 mph 88 % 0 in
05:13 31.6 °F 29.3 °F 29.88 in East 1.7 mph -999.0 mph 91 % 0 in
05:31 32.7 °F 29.3 °F 29.86 in WSW 4.7 mph -999.0 mph 87 % 0 in
05:46 32.9 °F 29.7 °F 29.85 in ESE 3.7 mph -999.0 mph 88 % 0 in
06:01 33.3 °F 30.1 °F 29.85 in SSE 3.2 mph -999.0 mph 88 % 0 in
06:17 33.8 °F 29.5 °F 29.84 in SSW 5.8 mph -999.0 mph 84 % 0 in
06:34 33.6 °F 28.4 °F 29.83 in SSE 3.2 mph -999.0 mph 81 % 0 in
06:51 33.3 °F 25.6 °F 29.83 in ENE 4.7 mph -999.0 mph 73 % 0 in
07:08 33.3 °F 25.9 °F 29.83 in South 8.3 mph -999.0 mph 74 % 0 in
07:24 33.8 °F 26.1 °F 29.82 in South 7.3 mph -999.0 mph 73 % 0 in
07:42 34.0 °F 26.3 °F 29.82 in NNE 13.0 mph -999.0 mph 73 % 0 in
07:57 34.2 °F 27.1 °F 29.81 in SSE 4.7 mph -999.0 mph 75 % 0 in
08:13 34.5 °F 27.4 °F 29.81 in SSE 6.8 mph -999.0 mph 75 % 0 in
08:29 34.7 °F 27.6 °F 29.81 in South 6.3 mph -999.0 mph 75 % 0 in
08:44 35.1 °F 27.3 °F 29.80 in SW 4.2 mph 25.3 mph 73 % 0 in
09:00 36.0 °F 27.8 °F 29.79 in WNW 4.7 mph -999.0 mph 72 % 0 in
09:15 36.9 °F 28.4 °F 29.79 in WNW 4.7 mph -999.0 mph 71 % 0 in
09:30 36.7 °F 28.5 °F 29.77 in West 5.8 mph 18.1 mph 72 % 0 in
09:45 36.3 °F 28.1 °F 29.76 in South 9.9 mph -999.0 mph 72 % 0 in
10:01 37.0 °F 29.2 °F 29.76 in NNW 4.2 mph 21.7 mph 73 % 0 in
10:16 37.0 °F 29.2 °F 29.76 in SSW 4.7 mph -999.0 mph 73 % 0 in
10:31 36.1 °F 29.6 °F 29.76 in SSW 10.9 mph -999.0 mph 77 % 0 in
10:46 37.0 °F 30.1 °F 29.74 in SSE 10.4 mph -999.0 mph 76 % 0 in
11:03 37.4 °F 30.5 °F 29.74 in SW 8.3 mph 21.7 mph 76 % 0 in
11:19 38.1 °F 30.5 °F 29.74 in South 6.3 mph 20.7 mph 74 % 0 in
11:35 37.8 °F 30.6 °F 29.74 in South 5.8 mph -999.0 mph 75 % 0 in
11:50 37.4 °F 30.5 °F 29.73 in WSW 6.3 mph 24.3 mph 76 % 0 in
12:06 36.3 °F 30.4 °F 29.72 in SW 4.7 mph -999.0 mph 79 % 0 in
12:21 37.0 °F 30.5 °F 29.74 in South 7.8 mph 19.7 mph 77 % 0 in
12:36 36.1 °F 30.2 °F 29.74 in SSE 6.3 mph -999.0 mph 79 % 0 in
12:52 36.3 °F 30.7 °F 29.72 in SW 7.8 mph -999.0 mph 80 % 0 in
13:07 36.3 °F 30.7 °F 29.71 in SSW 7.3 mph 20.7 mph 80 % 0 in
13:23 36.0 °F 30.7 °F 29.70 in SSW 6.8 mph -999.0 mph 81 % 0 in
13:38 36.3 °F 31.0 °F 29.70 in WSW 10.4 mph -999.0 mph 81 % 0 in
13:53 36.0 °F 31.0 °F 29.69 in SW 8.3 mph -999.0 mph 82 % 0 in
14:08 35.4 °F 31.0 °F 29.69 in SSE 6.3 mph -999.0 mph 84 % 0 in
14:24 35.6 °F 30.9 °F 29.69 in SSW 6.3 mph 19.1 mph 83 % 0 in
14:39 36.3 °F 31.0 °F 29.70 in West 5.3 mph -999.0 mph 81 % 0 in
14:54 37.0 °F 31.4 °F 29.70 in South 7.8 mph -999.0 mph 80 % 0 in
15:10 36.3 °F 31.6 °F 29.70 in South 2.7 mph -999.0 mph 83 % 0 in
15:25 35.2 °F 31.4 °F 29.70 in South 3.7 mph -999.0 mph 86 % 0 in
15:41 35.2 °F 31.1 °F 29.69 in WSW 3.7 mph -999.0 mph 85 % 0 in
15:56 36.5 °F 31.2 °F 29.69 in NW 1.7 mph -999.0 mph 81 % 0 in
16:11 35.8 °F 30.8 °F 29.68 in East 1.1 mph -999.0 mph 82 % 0 in
16:26 35.4 °F 30.8 °F 29.66 in ESE 2.7 mph -999.0 mph 83 % 0 in
16:42 35.4 °F 31.0 °F 29.64 in Calm   -999.0 mph 84 % 0 in
16:57 35.2 °F 30.9 °F 29.65 in South 6.3 mph -999.0 mph 84 % 0 in
17:12 34.7 °F 31.2 °F 29.63 in ESE 1.7 mph -999.0 mph 87 % 0 in
17:27 33.8 °F 31.2 °F 29.64 in SSE 4.7 mph -999.0 mph 90 % 0 in
17:44 33.1 °F 31.0 °F 29.64 in Calm   -999.0 mph 92 % 0 in
18:01 32.5 °F 30.7 °F 29.64 in Calm   -999.0 mph 93 % 0 in
18:17 32.2 °F 30.7 °F 29.64 in Calm   -999.0 mph 94 % 0 in
18:32 32.2 °F 30.9 °F 29.63 in Calm   -999.0 mph 95 % 0 in
18:47 32.2 °F 31.2 °F 29.62 in Calm   -999.0 mph 96 % 0 in
19:03 32.2 °F 31.2 °F 29.62 in Calm   -999.0 mph 96 % 0 in
19:18 32.0 °F 31.0 °F 29.62 in Calm   -999.0 mph 96 % 0 in
19:33 32.0 °F 31.0 °F 29.62 in Calm   -999.0 mph 96 % 0 in
19:48 32.0 °F 31.0 °F 29.62 in Calm   -999.0 mph 96 % 0 in
20:03 32.0 °F 31.0 °F 29.62 in Calm   -999.0 mph 96 % 0 in
20:18 32.0 °F 31.0 °F 29.62 in Calm   -999.0 mph 96 % 0 in
20:34 32.0 °F 31.0 °F 29.62 in Calm   -999.0 mph 96 % 0 in
20:49 32.0 °F 31.0 °F 29.61 in Calm   -999.0 mph 96 % 0 in
21:04 32.0 °F 31.0 °F 29.61 in Calm   -999.0 mph 96 % 0 in
21:21 32.0 °F 31.2 °F 29.61 in Calm   -999.0 mph 97 % 0 in
21:36 32.0 °F 31.2 °F 29.61 in Calm   -999.0 mph 97 % 0 in
21:52 32.0 °F 31.2 °F 29.61 in Calm   -999.0 mph 97 % 0 in
22:07 32.0 °F 31.2 °F 29.60 in Calm   -999.0 mph 97 % 0 in
22:22 32.0 °F 31.2 °F 29.60 in Calm   -999.0 mph 97 % 0 in
22:37 32.0 °F 31.2 °F 29.60 in Calm   -999.0 mph 97 % 0 in
22:52 31.5 °F 30.7 °F 29.61 in Calm   -999.0 mph 97 % 0 in
23:08 31.1 °F 30.1 °F 29.61 in Calm   -999.0 mph 96 % 0 in
23:23 30.7 °F 29.4 °F 29.61 in Calm   -999.0 mph 95 % 0 in
23:38 30.4 °F 29.4 °F 29.61 in Calm   -999.0 mph 96 % 0 in
23:53 30.0 °F 29.0 °F 29.61 in Calm   -999.0 mph 96 % 0 in
Big Bear CA Weather
Compliments of Weather Underground - 1.5 mb